Terminal Aerodrome Forecast
Issued by NWS

Home | Current Version | Previous Version | Text Only | Print | Product List | Glossary On
Versions: 1 2 3 4 5 6 7 8 9 10 11 12 13 14 15 16 17 18 19 20 21 22 23 24 25 26 27 28
796
FTUS41 KOKX 121723
TAFSWF
TAF
KSWF 121723Z 1218/1324 24005KT P6SM VCSH SCT020 BKN030
     FM122000 27009KT P6SM VCSH SCT020 BKN030
     FM130000 27014G21KT P6SM VCSH SCT020 BKN030
     FM130600 29015G24KT P6SM VCSH FEW020 BKN040
     FM131300 29023G35KT P6SM BKN040
     FM132100 28020G29KT P6SM BKN040
      AMD NOT SKED=

USA.gov is the U.S. government's official web portal to all federal, state and local government web resources and services.